Time;durP1;ratioP1;P1;durP2;ratioP2;P2;SDS_P1;SDS_P2;PMS_P1;PMS_P2;Temp;Humidity;BMP_temperature;BMP_pressure;BME280_temperature;BME280_humidity;BME280_pressure;Samples;Min_cycle;Max_cycle;Signal;HPM_P1;HPM_P2
2023/01/05 00:01:50;;;;;;;9.07;6.28;;;;;;;;;;4971110;28;20015;-48
2023/01/05 00:04:17;;;;;;;7.60;5.40;;;;;;;;;;4970807;28;20031;-47
2023/01/05 00:06:43;;;;;;;9.07;5.90;;;;;;;;;;4970718;28;20478;-48
2023/01/05 00:09:11;;;;;;;7.93;5.28;;;;;;;;;;4953350;28;20077;-48
2023/01/05 00:22:47;;;;;;;6.82;4.80;;;;;;;;;;4951158;29;20123;-48
2023/01/05 00:25:14;;;;;;;7.15;4.55;;;;;;;;;;4951100;29;20494;-45
2023/01/05 00:27:41;;;;;;;8.75;5.18;;;;;;;;;;4963406;28;20030;-46
2023/01/05 00:30:09;;;;;;;6.93;4.43;;;;;;;;;;4970514;28;20659;-47
2023/01/05 00:32:35;;;;;;;6.93;4.55;;;;;;;;;;4952379;28;20494;-47
2023/01/05 00:35:01;;;;;;;6.88;4.43;;;;;;;;;;4970118;28;20085;-47
2023/01/05 00:37:29;;;;;;;6.22;4.47;;;;;;;;;;4968808;28;20406;-49
2023/01/05 00:39:55;;;;;;;6.72;4.75;;;;;;;;;;4970184;28;20031;-47
2023/01/05 00:42:22;;;;;;;7.10;4.82;;;;;;;;;;4952524;28;20482;-46
2023/01/05 00:44:48;;;;;;;7.20;4.68;;;;;;;;;;4970652;28;20110;-47
2023/01/05 00:47:14;;;;;;;7.40;5.32;;;;;;;;;;4968753;28;20473;-47
2023/01/05 00:49:40;;;;;;;6.45;4.20;;;;;;;;;;4980455;28;20066;-47
2023/01/05 00:52:06;;;;;;;7.30;4.43;;;;;;;;;;4981419;28;20026;-47
2023/01/05 00:54:32;;;;;;;6.35;4.57;;;;;;;;;;4967799;28;20034;-48
2023/01/05 00:56:59;;;;;;;6.55;4.63;;;;;;;;;;4966775;28;20031;-46
2023/01/05 00:59:25;;;;;;;7.03;4.80;;;;;;;;;;4969595;28;20066;-47
2023/01/05 01:01:52;;;;;;;7.70;4.97;;;;;;;;;;4969630;28;20011;-46
2023/01/05 01:04:18;;;;;;;6.32;4.40;;;;;;;;;;4970097;28;20046;-45
2023/01/05 06:12:18;;;;;;;6.43;4.45;;;;;;;;;;4966225;28;20046;-49
2023/01/05 06:14:44;;;;;;;5.32;3.92;;;;;;;;;;4969293;28;20030;-48
2023/01/05 06:17:10;;;;;;;6.32;4.10;;;;;;;;;;4969444;28;20026;-45
2023/01/05 06:19:36;;;;;;;5.30;3.75;;;;;;;;;;4969343;28;20050;-47
2023/01/05 06:22:02;;;;;;;6.03;4.03;;;;;;;;;;4968405;28;20467;-47
2023/01/05 06:24:28;;;;;;;6.30;3.80;;;;;;;;;;4969597;28;20027;-46
2023/01/05 06:26:55;;;;;;;5.60;4.05;;;;;;;;;;4969236;28;20486;-47
2023/01/05 06:29:21;;;;;;;5.07;3.95;;;;;;;;;;4966944;28;20030;-46
2023/01/05 06:31:47;;;;;;;4.75;3.47;;;;;;;;;;4969045;28;20414;-45
2023/01/05 06:34:13;;;;;;;4.68;3.58;;;;;;;;;;4969415;28;20030;-46
2023/01/05 06:36:39;;;;;;;6.10;3.83;;;;;;;;;;4969242;28;20026;-46
2023/01/05 06:39:05;;;;;;;5.85;4.05;;;;;;;;;;4969161;28;20034;-47
2023/01/05 06:41:34;;;;;;;5.43;3.65;;;;;;;;;;4969026;28;20029;-45
2023/01/05 06:44:00;;;;;;;4.95;3.72;;;;;;;;;;4967175;28;20119;-49
2023/01/05 06:46:26;;;;;;;5.10;3.85;;;;;;;;;;4970990;28;20023;-49
2023/01/05 06:48:52;;;;;;;4.82;3.50;;;;;;;;;;4973999;28;20027;-46
2023/01/05 06:51:18;;;;;;;5.30;3.75;;;;;;;;;;4975369;28;20565;-48
2023/01/05 06:53:44;;;;;;;4.40;3.20;;;;;;;;;;4975413;28;20026;-47
2023/01/05 06:56:10;;;;;;;6.35;3.67;;;;;;;;;;4975030;28;20027;-45
2023/01/05 06:58:36;;;;;;;4.65;3.50;;;;;;;;;;4975262;28;20442;-45
2023/01/05 07:01:02;;;;;;;5.95;4.15;;;;;;;;;;4975701;28;20035;-45
2023/01/05 07:03:28;;;;;;;4.57;3.47;;;;;;;;;;4975708;28;20493;-45
2023/01/05 07:05:54;;;;;;;5.80;4.00;;;;;;;;;;4974983;28;20033;-45
2023/01/05 07:08:20;;;;;;;5.55;3.95;;;;;;;;;;4975147;28;20038;-48
2023/01/05 07:10:46;;;;;;;5.68;3.67;;;;;;;;;;4985279;28;20035;-45
2023/01/05 07:13:12;;;;;;;5.22;3.42;;;;;;;;;;4980998;28;20659;-45
2023/01/05 07:15:38;;;;;;;4.40;3.28;;;;;;;;;;4974789;28;20102;-46
2023/01/05 07:18:04;;;;;;;4.53;3.28;;;;;;;;;;4975286;28;20111;-48
2023/01/05 07:20:30;;;;;;;3.97;3.20;;;;;;;;;;4975214;28;20177;-48
2023/01/05 07:22:56;;;;;;;4.72;3.40;;;;;;;;;;4975151;28;20562;-45
2023/01/05 07:25:22;;;;;;;4.20;2.70;;;;;;;;;;4975234;28;20109;-48
2023/01/05 07:27:51;;;;;;;4.68;2.95;;;;;;;;;;4975015;28;20026;-46
2023/01/05 07:30:18;;;;;;;4.35;3.00;;;;;;;;;;4975305;28;20410;-48
2023/01/05 07:32:44;;;;;;;4.68;3.22;;;;;;;;;;4975080;28;20035;-46
2023/01/05 07:35:10;;;;;;;3.45;2.53;;;;;;;;;;4973640;28;20030;-48
2023/01/05 07:37:36;;;;;;;4.10;3.05;;;;;;;;;;4974963;28;20106;-45
2023/01/05 07:40:03;;;;;;;4.18;2.67;;;;;;;;;;4974557;28;20800;-48
2023/01/05 07:42:29;;;;;;;2.60;2.28;;;;;;;;;;4975156;28;20479;-46
2023/01/05 07:44:55;;;;;;;3.40;2.42;;;;;;;;;;4957554;28;20441;-45
2023/01/05 07:47:21;;;;;;;4.22;3.00;;;;;;;;;;4973743;28;20034;-44
2023/01/05 07:49:47;;;;;;;4.32;3.33;;;;;;;;;;4975086;28;20486;-46
2023/01/05 07:52:13;;;;;;;4.82;3.25;;;;;;;;;;4974227;28;20046;-47
2023/01/05 07:54:39;;;;;;;5.60;3.70;;;;;;;;;;4975004;28;20030;-47
2023/01/05 07:57:06;;;;;;;4.85;3.70;;;;;;;;;;4974261;28;20034;-46
2023/01/05 07:59:32;;;;;;;5.22;3.33;;;;;;;;;;4972042;28;20111;-46
2023/01/05 08:01:58;;;;;;;5.03;3.33;;;;;;;;;;4969805;28;20023;-46
2023/01/05 08:04:25;;;;;;;4.80;3.60;;;;;;;;;;4970580;28;20030;-48
2023/01/05 08:06:51;;;;;;;4.47;3.00;;;;;;;;;;4970248;28;20026;-47
2023/01/05 08:12:03;;;;;;;3.40;2.85;;;;;;;;;;4968625;28;20069;-45
2023/01/05 08:14:29;;;;;;;3.65;2.88;;;;;;;;;;4974736;28;20556;-47
2023/01/05 08:16:55;;;;;;;4.90;3.30;;;;;;;;;;4990871;28;20028;-45
2023/01/05 08:19:21;;;;;;;4.65;3.40;;;;;;;;;;4980258;28;21059;-47
2023/01/05 08:21:47;;;;;;;5.05;3.20;;;;;;;;;;4968713;28;20027;-46
2023/01/05 08:24:13;;;;;;;4.88;3.25;;;;;;;;;;4970133;28;20410;-47
2023/01/05 08:26:39;;;;;;;4.80;3.38;;;;;;;;;;4971690;28;20019;-46
2023/01/05 08:29:06;;;;;;;4.45;3.15;;;;;;;;;;4968348;28;20039;-47
2023/01/05 08:31:36;;;;;;;4.70;3.28;;;;;;;;;;4972401;28;20039;-46
2023/01/05 08:34:03;;;;;;;4.10;3.20;;;;;;;;;;4970383;28;20050;-46
2023/01/05 08:36:30;;;;;;;3.25;2.50;;;;;;;;;;4970970;28;20045;-46
2023/01/05 08:38:56;;;;;;;3.50;2.70;;;;;;;;;;4971796;28;20034;-46
2023/01/05 08:41:29;;;;;;;5.65;3.35;;;;;;;;;;4971869;28;20029;-45
2023/01/05 08:43:56;;;;;;;4.88;3.08;;;;;;;;;;4971841;28;20026;-45
2023/01/05 08:46:23;;;;;;;3.95;2.92;;;;;;;;;;4971803;28;20054;-45
2023/01/05 08:48:50;;;;;;;4.30;3.03;;;;;;;;;;4972138;28;20042;-45
2023/01/05 08:51:18;;;;;;;3.13;2.60;;;;;;;;;;4970634;28;20027;-46
2023/01/05 08:53:44;;;;;;;4.60;3.35;;;;;;;;;;4971972;28;20030;-46
2023/01/05 08:56:11;;;;;;;3.95;3.20;;;;;;;;;;4971038;28;20497;-45
2023/01/05 08:58:37;;;;;;;4.13;3.10;;;;;;;;;;4980303;28;20023;-45
2023/01/05 09:01:11;;;;;;;3.95;3.50;;;;;;;;;;4971255;28;20031;-44
2023/01/05 09:03:37;;;;;;;3.87;3.23;;;;;;;;;;4970277;28;20098;-49
2023/01/05 09:06:04;;;;;;;5.05;3.75;;;;;;;;;;4971698;28;20031;-44
2023/01/05 09:08:33;;;;;;;4.25;3.42;;;;;;;;;;4971728;28;20460;-46
2023/01/05 09:11:09;;;;;;;3.90;3.45;;;;;;;;;;4970883;28;20039;-45
2023/01/05 09:13:35;;;;;;;4.60;3.40;;;;;;;;;;4971122;28;20417;-47
2023/01/05 09:16:05;;;;;;;4.30;3.55;;;;;;;;;;4971626;28;20173;-46
2023/01/05 09:18:31;;;;;;;5.00;3.67;;;;;;;;;;4971624;28;20533;-46
2023/01/05 09:20:57;;;;;;;5.45;3.95;;;;;;;;;;4971034;28;20035;-47
2023/01/05 09:23:24;;;;;;;4.40;3.50;;;;;;;;;;4969860;28;20027;-46
2023/01/05 09:25:50;;;;;;;4.13;3.33;;;;;;;;;;4971162;28;20495;-48
2023/01/05 09:28:16;;;;;;;4.63;3.50;;;;;;;;;;4971144;28;20101;-48
2023/01/05 09:30:43;;;;;;;4.22;3.67;;;;;;;;;;4971167;28;20038;-46
2023/01/05 09:33:09;;;;;;;4.30;3.30;;;;;;;;;;4970888;28;20039;-45
2023/01/05 09:35:35;;;;;;;3.92;3.22;;;;;;;;;;4970890;28;20094;-45
2023/01/05 09:38:01;;;;;;;5.00;3.60;;;;;;;;;;4971149;28;20089;-47
2023/01/05 09:40:27;;;;;;;4.07;3.33;;;;;;;;;;4965118;28;20394;-47
2023/01/05 09:42:54;;;;;;;4.43;3.45;;;;;;;;;;4964754;28;20030;-48
2023/01/05 09:45:25;;;;;;;4.00;3.25;;;;;;;;;;4945589;28;20042;-45
2023/01/05 09:47:52;;;;;;;3.42;2.90;;;;;;;;;;4950915;28;20030;-46
2023/01/05 09:50:19;;;;;;;3.95;2.60;;;;;;;;;;4956784;28;20031;-46
2023/01/05 09:52:46;;;;;;;3.42;2.50;;;;;;;;;;4959011;28;20031;-45
2023/01/05 09:55:15;;;;;;;2.30;2.05;;;;;;;;;;4958387;28;20564;-48
2023/01/05 09:57:42;;;;;;;2.22;2.03;;;;;;;;;;4959297;28;20699;-46
2023/01/05 10:00:11;;;;;;;2.83;2.30;;;;;;;;;;4959366;28;20043;-48
2023/01/05 10:02:37;;;;;;;2.85;2.30;;;;;;;;;;4959744;28;20027;-48
2023/01/05 10:05:04;;;;;;;2.65;2.30;;;;;;;;;;4960648;28;20035;-48
2023/01/05 10:07:30;;;;;;;3.20;2.30;;;;;;;;;;4960765;28;20031;-46
2023/01/05 10:09:59;;;;;;;2.58;2.20;;;;;;;;;;4959577;28;20035;-46
2023/01/05 10:15:21;;;;;;;2.47;1.80;;;;;;;;;;4960686;28;20671;-44
2023/01/05 10:17:47;;;;;;;2.50;2.28;;;;;;;;;;4956620;28;20026;-48
2023/01/05 10:20:14;;;;;;;2.22;1.80;;;;;;;;;;4957428;28;20041;-47
2023/01/05 10:22:55;;;;;;;2.30;1.80;;;;;;;;;;4958039;28;20109;-48
2023/01/05 10:25:25;;;;;;;1.90;1.50;;;;;;;;;;4957405;28;21134;-45
2023/01/05 10:27:57;;;;;;;2.47;1.75;;;;;;;;;;4958778;28;20030;-45
2023/01/05 10:30:24;;;;;;;2.28;1.75;;;;;;;;;;4956482;28;20035;-45
2023/01/05 10:32:53;;;;;;;1.50;1.38;;;;;;;;;;4957071;28;20031;-46
2023/01/05 10:35:19;;;;;;;2.47;2.00;;;;;;;;;;4958891;28;20148;-45
2023/01/05 10:38:04;;;;;;;1.75;1.63;;;;;;;;;;4959609;28;20514;-44
2023/01/05 10:40:33;;;;;;;2.17;1.67;;;;;;;;;;4956137;28;20039;-48
2023/01/05 10:43:02;;;;;;;2.17;1.50;;;;;;;;;;4959075;28;20062;-47
2023/01/05 10:45:29;;;;;;;1.83;1.23;;;;;;;;;;4959098;28;20134;-49
2023/01/05 10:47:55;;;;;;;2.08;1.65;;;;;;;;;;4957968;28;20034;-47
2023/01/05 10:50:28;;;;;;;1.80;1.50;;;;;;;;;;4957343;28;21145;-48
2023/01/05 10:52:54;;;;;;;1.45;1.10;;;;;;;;;;4957878;28;20134;-46
2023/01/05 10:55:21;;;;;;;1.63;1.08;;;;;;;;;;4957669;28;20039;-46
2023/01/05 10:57:47;;;;;;;1.50;1.13;;;;;;;;;;4958778;28;20027;-45
2023/01/05 11:00:17;;;;;;;1.58;1.10;;;;;;;;;;4955004;28;20429;-45
2023/01/05 11:02:52;;;;;;;1.05;0.90;;;;;;;;;;4957414;28;20026;-47
2023/01/05 11:05:27;;;;;;;1.05;0.95;;;;;;;;;;4957446;28;20031;-48
2023/01/05 11:07:55;;;;;;;0.70;0.70;;;;;;;;;;4958326;28;20134;-46
2023/01/05 11:10:24;;;;;;;1.00;0.80;;;;;;;;;;4956227;28;20034;-48
2023/01/05 11:12:51;;;;;;;0.93;0.70;;;;;;;;;;4956455;28;20634;-45
2023/01/05 11:15:18;;;;;;;0.77;0.77;;;;;;;;;;4959880;28;20135;-44
2023/01/05 11:17:45;;;;;;;1.35;0.80;;;;;;;;;;4958523;28;20085;-47
2023/01/05 11:20:16;;;;;;;0.68;0.68;;;;;;;;;;4958014;28;20070;-46
2023/01/05 11:22:47;;;;;;;1.13;0.70;;;;;;;;;;4962742;28;20037;-47
2023/01/05 11:25:14;;;;;;;0.77;0.77;;;;;;;;;;4957624;28;20435;-48
2023/01/05 11:27:40;;;;;;;0.45;0.45;;;;;;;;;;4959614;28;20027;-46
2023/01/05 11:30:15;;;;;;;0.57;0.57;;;;;;;;;;4961355;28;20039;-45
2023/01/05 11:32:45;;;;;;;0.60;0.60;;;;;;;;;;4962414;28;20530;-48
2023/01/05 11:35:25;;;;;;;0.63;0.63;;;;;;;;;;4968256;28;20105;-46
2023/01/05 11:37:51;;;;;;;0.65;0.60;;;;;;;;;;4962074;28;20037;-45
2023/01/05 11:40:18;;;;;;;0.60;0.60;;;;;;;;;;4968390;28;20038;-45
2023/01/05 11:42:45;;;;;;;0.50;0.50;;;;;;;;;;4967039;28;20034;-45
2023/01/05 11:45:23;;;;;;;0.50;0.50;;;;;;;;;;4961386;28;20112;-46
2023/01/05 11:47:49;;;;;;;0.60;0.60;;;;;;;;;;4960903;28;20052;-46
2023/01/05 11:50:17;;;;;;;0.70;0.70;;;;;;;;;;4962074;28;20039;-46
2023/01/05 11:52:44;;;;;;;0.50;0.50;;;;;;;;;;4960310;28;20035;-46
2023/01/05 11:55:20;;;;;;;0.80;0.80;;;;;;;;;;4961687;28;20043;-47
2023/01/05 11:57:51;;;;;;;0.60;0.60;;;;;;;;;;4961977;28;20070;-45
2023/01/05 12:00:27;;;;;;;0.65;0.50;;;;;;;;;;4960457;28;20054;-44
2023/01/05 12:03:12;;;;;;;0.60;0.60;;;;;;;;;;4960229;28;20023;-47
2023/01/05 12:05:38;;;;;;;0.60;0.60;;;;;;;;;;4960468;28;20031;-48
2023/01/05 12:08:15;;;;;;;0.60;0.60;;;;;;;;;;4961438;28;20037;-46
2023/01/05 12:10:42;;;;;;;0.50;0.50;;;;;;;;;;4959032;28;20149;-45
2023/01/05 12:13:26;;;;;;;0.43;0.43;;;;;;;;;;4960384;28;20893;-46
2023/01/05 12:15:52;;;;;;;0.50;0.50;;;;;;;;;;4961164;28;20054;-46
2023/01/05 12:18:24;;;;;;;0.50;0.50;;;;;;;;;;4961816;28;20033;-46
2023/01/05 12:20:56;;;;;;;0.93;0.80;;;;;;;;;;4958616;28;20572;-46
2023/01/05 12:23:43;;;;;;;0.88;0.88;;;;;;;;;;4959759;28;20047;-45
2023/01/05 12:26:28;;;;;;;0.68;0.68;;;;;;;;;;4957988;28;20068;-45
2023/01/05 12:29:03;;;;;;;0.52;0.52;;;;;;;;;;4960391;28;20054;-45
2023/01/05 12:31:47;;;;;;;0.50;0.50;;;;;;;;;;4958676;28;20042;-47
2023/01/05 12:34:13;;;;;;;;;;;;;;;;;;4961511;28;20035;-45
2023/01/05 12:36:58;;;;;;;0.40;0.40;;;;;;;;;;4960789;28;19925;-48
2023/01/05 12:39:36;;;;;;;0.50;0.50;;;;;;;;;;4960157;28;20114;-48
2023/01/05 12:42:15;;;;;;;0.50;0.50;;;;;;;;;;4957105;28;20048;-44
2023/01/05 12:44:56;;;;;;;0.45;0.45;;;;;;;;;;4959664;28;20517;-47
2023/01/05 12:47:29;;;;;;;0.57;0.57;;;;;;;;;;4960407;28;20051;-48
2023/01/05 12:50:01;;;;;;;0.50;0.40;;;;;;;;;;4960986;28;20094;-46
2023/01/05 12:52:33;;;;;;;0.60;0.60;;;;;;;;;;4959944;28;20030;-47
2023/01/05 12:55:11;;;;;;;0.40;0.40;;;;;;;;;;4960226;28;20034;-45
2023/01/05 12:57:39;;;;;;;0.73;0.68;;;;;;;;;;4956281;28;20039;-48
2023/01/05 13:00:06;;;;;;;0.68;0.52;;;;;;;;;;4958251;28;20038;-47
2023/01/05 13:02:34;;;;;;;0.82;0.60;;;;;;;;;;4955026;28;20053;-46
2023/01/05 13:05:03;;;;;;;0.40;0.40;;;;;;;;;;4956969;28;20031;-46
2023/01/05 13:07:37;;;;;;;0.40;0.40;;;;;;;;;;4957640;28;20023;-47
2023/01/05 13:10:07;;;;;;;0.82;0.60;;;;;;;;;;4955345;28;20030;-45
2023/01/05 13:12:33;;;;;;;0.50;0.50;;;;;;;;;;4954801;28;20039;-49
2023/01/05 13:15:11;;;;;;;0.90;0.60;;;;;;;;;;4959047;28;20035;-46
2023/01/05 13:17:51;;;;;;;0.68;0.68;;;;;;;;;;4958313;28;20548;-45
2023/01/05 13:20:26;;;;;;;0.80;0.70;;;;;;;;;;4957208;28;20039;-47
2023/01/05 13:22:55;;;;;;;1.10;0.90;;;;;;;;;;4954988;28;20023;-45
2023/01/05 13:25:24;;;;;;;1.05;0.70;;;;;;;;;;4954872;28;20039;-45
2023/01/05 13:27:50;;;;;;;0.80;0.80;;;;;;;;;;4955594;28;20962;-44
2023/01/05 13:30:23;;;;;;;1.00;0.90;;;;;;;;;;4954953;28;20039;-45
2023/01/05 13:32:58;;;;;;;0.80;0.80;;;;;;;;;;4957787;28;20042;-46
2023/01/05 13:35:30;;;;;;;1.10;1.00;;;;;;;;;;4956138;28;20050;-45
2023/01/05 13:37:59;;;;;;;1.20;0.80;;;;;;;;;;4959111;28;20042;-48
2023/01/05 13:40:44;;;;;;;1.08;0.98;;;;;;;;;;4958013;28;20038;-45
2023/01/05 13:43:30;;;;;;;1.58;1.30;;;;;;;;;;4959301;28;20034;-45
2023/01/05 13:46:08;;;;;;;1.17;1.08;;;;;;;;;;4927809;28;20047;-49
2023/01/05 13:48:34;;;;;;;1.60;1.50;;;;;;;;;;4959960;28;20027;-46
2023/01/05 13:51:10;;;;;;;1.58;1.02;;;;;;;;;;4959007;28;20039;-47
2023/01/05 13:53:38;;;;;;;1.35;1.20;;;;;;;;;;4958864;28;20027;-45
2023/01/05 13:56:09;;;;;;;2.33;1.10;;;;;;;;;;4958503;28;20045;-48
2023/01/05 13:58:38;;;;;;;0.95;0.95;;;;;;;;;;4958369;28;20030;-44
2023/01/05 14:01:05;;;;;;;0.95;0.85;;;;;;;;;;4958224;28;20035;-47
2023/01/05 14:03:33;;;;;;;1.40;1.00;;;;;;;;;;4959063;28;20030;-47
2023/01/05 14:06:01;;;;;;;0.80;0.80;;;;;;;;;;4959268;28;20038;-46
2023/01/05 14:08:30;;;;;;;1.08;1.00;;;;;;;;;;4960089;28;20065;-48
2023/01/05 14:11:20;;;;;;;1.45;1.20;;;;;;;;;;4955253;28;20525;-44
2023/01/05 14:13:47;;;;;;;1.10;1.00;;;;;;;;;;4954719;28;20046;-47
2023/01/05 14:16:31;;;;;;;0.90;0.90;;;;;;;;;;4958986;28;20387;-48
2023/01/05 14:19:13;;;;;;;0.63;0.63;;;;;;;;;;4958933;28;20058;-45
2023/01/05 14:21:48;;;;;;;0.80;0.80;;;;;;;;;;4957283;28;20027;-45
2023/01/05 14:24:32;;;;;;;0.90;0.80;;;;;;;;;;4957008;28;20033;-46
2023/01/05 14:26:58;;;;;;;;;;;;;;;;;;4960063;28;20034;-45
2023/01/05 14:29:43;;;;;;;1.35;1.00;;;;;;;;;;4958356;28;20071;-45
2023/01/05 14:32:10;;;;;;;1.13;0.77;;;;;;;;;;4958601;28;20118;-44
2023/01/05 14:34:36;;;;;;;1.00;0.70;;;;;;;;;;4958394;28;20026;-47
2023/01/05 14:37:05;;;;;;;1.20;0.90;;;;;;;;;;4958882;28;20053;-45
2023/01/05 14:39:40;;;;;;;1.35;1.08;;;;;;;;;;4958395;28;20045;-45
2023/01/05 14:42:13;;;;;;;0.98;0.60;;;;;;;;;;4959054;28;20076;-45
2023/01/05 14:44:48;;;;;;;0.60;0.60;;;;;;;;;;4959871;28;20019;-46
2023/01/05 14:47:15;;;;;;;0.77;0.60;;;;;;;;;;4958696;28;20287;-46
2023/01/05 14:50:02;;;;;;;0.57;0.57;;;;;;;;;;4956810;28;20449;-48
2023/01/05 14:52:47;;;;;;;1.08;0.60;;;;;;;;;;4955935;28;20142;-45
2023/01/05 14:55:23;;;;;;;1.30;0.70;;;;;;;;;;4958133;28;20043;-45
2023/01/05 14:57:51;;;;;;;0.60;0.60;;;;;;;;;;4958350;28;20515;-45
2023/01/05 15:00:43;;;;;;;0.50;0.50;;;;;;;;;;4957246;28;20114;-45
2023/01/05 15:03:29;;;;;;;0.77;0.77;;;;;;;;;;4955282;28;20046;-45
2023/01/05 15:06:03;;;;;;;0.60;0.60;;;;;;;;;;4958320;28;20043;-47
2023/01/05 15:08:35;;;;;;;0.70;0.70;;;;;;;;;;4961011;28;20064;-44
2023/01/05 15:11:20;;;;;;;0.95;0.60;;;;;;;;;;4959625;28;20035;-45
2023/01/05 15:14:30;;;;;;;0.65;0.60;;;;;;;;;;4962621;28;20148;-45
2023/01/05 15:16:52;;;;;;;1.00;0.90;;;;;;;;;;4962566;28;20134;-45
2023/01/05 15:19:41;;;;;;;0.70;0.70;;;;;;;;;;4932709;28;20043;-46
2023/01/05 15:22:26;;;;;;;1.08;0.88;;;;;;;;;;4958016;28;20026;-45
2023/01/05 15:24:52;;;;;;;;;;;;;;;;;;4970351;28;20030;-46
2023/01/05 15:27:35;;;;;;;1.02;0.93;;;;;;;;;;4971422;28;19956;-49
2023/01/05 15:30:04;;;;;;;1.23;1.00;;;;;;;;;;4978998;28;20038;-45
2023/01/05 15:32:33;;;;;;;1.73;1.38;;;;;;;;;;4978462;28;20035;-44
2023/01/05 15:35:09;;;;;;;0.98;0.90;;;;;;;;;;4974782;28;20045;-47
2023/01/05 15:37:37;;;;;;;0.82;0.80;;;;;;;;;;4975939;28;20039;-44
2023/01/05 15:40:06;;;;;;;1.23;0.88;;;;;;;;;;4977222;28;20039;-44
2023/01/05 15:42:38;;;;;;;0.80;0.80;;;;;;;;;;4982558;28;20042;-45
2023/01/05 15:45:06;;;;;;;1.20;1.08;;;;;;;;;;4980521;28;20394;-45
2023/01/05 15:47:36;;;;;;;1.10;1.00;;;;;;;;;;4976156;28;20724;-44
2023/01/05 15:50:02;;;;;;;0.98;0.98;;;;;;;;;;4979570;28;20126;-45
2023/01/05 15:52:28;;;;;;;0.70;0.70;;;;;;;;;;4971132;28;20506;-47
2023/01/05 15:55:01;;;;;;;1.20;1.10;;;;;;;;;;4971347;28;20038;-46
2023/01/05 15:57:27;;;;;;;1.08;1.02;;;;;;;;;;4979498;28;20035;-44
2023/01/05 15:59:53;;;;;;;2.00;1.05;;;;;;;;;;4982530;28;20093;-47
2023/01/05 16:02:22;;;;;;;1.30;1.00;;;;;;;;;;4978824;28;20018;-47
2023/01/05 16:05:06;;;;;;;1.90;1.30;;;;;;;;;;4976478;28;20030;-46
2023/01/05 16:07:32;;;;;;;1.77;1.33;;;;;;;;;;4978324;28;20676;-44
2023/01/05 16:09:58;;;;;;;1.65;1.25;;;;;;;;;;4976916;28;20454;-45
2023/01/05 16:12:25;;;;;;;1.77;1.40;;;;;;;;;;4979549;28;20054;-45
2023/01/05 16:14:56;;;;;;;2.67;1.90;;;;;;;;;;4964611;28;20513;-45
2023/01/05 16:17:23;;;;;;;3.70;2.05;;;;;;;;;;4962272;28;20688;-45
2023/01/05 16:19:57;;;;;;;2.33;1.88;;;;;;;;;;4962189;28;20093;-45
2023/01/05 16:22:30;;;;;;;2.22;1.70;;;;;;;;;;4959841;28;20030;-45
2023/01/05 16:24:59;;;;;;;2.90;1.77;;;;;;;;;;4956733;28;20031;-46
2023/01/05 16:27:25;;;;;;;2.50;1.80;;;;;;;;;;4962257;28;20039;-45
2023/01/05 16:29:51;;;;;;;1.88;1.67;;;;;;;;;;4958489;28;20578;-47
2023/01/05 16:32:27;;;;;;;1.73;1.63;;;;;;;;;;4958926;28;20038;-46
2023/01/05 16:35:12;;;;;;;1.55;1.30;;;;;;;;;;4955369;28;20093;-47
2023/01/05 16:37:38;;;;;;;1.20;1.10;;;;;;;;;;4958688;28;20041;-43
2023/01/05 16:40:04;;;;;;;1.83;1.30;;;;;;;;;;4959179;28;20039;-44
2023/01/05 16:42:30;;;;;;;1.85;1.40;;;;;;;;;;4958822;28;20034;-44
2023/01/05 16:44:58;;;;;;;2.20;1.40;;;;;;;;;;4952713;28;20052;-45
2023/01/05 16:47:32;;;;;;;2.15;1.25;;;;;;;;;;4958486;28;20031;-45
2023/01/05 16:49:59;;;;;;;2.13;1.50;;;;;;;;;;4960233;28;20051;-45
2023/01/05 16:52:25;;;;;;;1.48;1.20;;;;;;;;;;4960515;28;20030;-45
2023/01/05 16:55:10;;;;;;;1.50;1.25;;;;;;;;;;4957368;28;20034;-44
2023/01/05 16:57:41;;;;;;;1.55;1.10;;;;;;;;;;4957786;28;20521;-45
2023/01/05 17:00:25;;;;;;;1.35;1.17;;;;;;;;;;4957299;28;20046;-45
2023/01/05 17:02:53;;;;;;;1.23;1.00;;;;;;;;;;4967776;28;20106;-45
2023/01/05 17:05:20;;;;;;;1.20;1.00;;;;;;;;;;4970100;28;20019;-44
2023/01/05 17:07:47;;;;;;;1.52;1.20;;;;;;;;;;4970512;28;20022;-45
2023/01/05 17:10:15;;;;;;;4.22;1.33;;;;;;;;;;4970833;28;20039;-45
2023/01/05 17:12:42;;;;;;;1.52;1.00;;;;;;;;;;4970454;28;20643;-44
2023/01/05 17:15:08;;;;;;;1.40;1.30;;;;;;;;;;4970838;28;20502;-47
2023/01/05 17:17:34;;;;;;;1.55;1.45;;;;;;;;;;4952446;28;20410;-44
2023/01/05 17:20:01;;;;;;;1.40;1.30;;;;;;;;;;4967518;28;20033;-47
2023/01/05 17:22:27;;;;;;;1.83;1.40;;;;;;;;;;4969498;28;20651;-45
2023/01/05 17:24:53;;;;;;;1.52;1.23;;;;;;;;;;4969576;28;20461;-44
2023/01/05 17:27:19;;;;;;;1.40;1.10;;;;;;;;;;4970801;28;20102;-45
2023/01/05 17:29:45;;;;;;;1.40;1.30;;;;;;;;;;4966165;28;20110;-46
2023/01/05 17:32:11;;;;;;;1.25;1.15;;;;;;;;;;4969584;28;20446;-45
2023/01/05 17:34:39;;;;;;;1.40;1.20;;;;;;;;;;4968408;28;20077;-44
2023/01/05 17:37:05;;;;;;;1.15;1.00;;;;;;;;;;4970208;28;20097;-48
2023/01/05 17:39:31;;;;;;;1.67;1.35;;;;;;;;;;4970590;28;20031;-45
2023/01/05 17:42:41;;;;;;;1.67;1.20;;;;;;;;;;4970029;28;20037;-45
2023/01/05 17:44:43;;;;;;;1.88;1.50;;;;;;;;;;4970296;28;20055;-46
2023/01/05 17:47:09;;;;;;;1.98;1.45;;;;;;;;;;4970298;28;20069;-45
2023/01/05 17:49:36;;;;;;;1.88;1.50;;;;;;;;;;4968484;28;20018;-45
2023/01/05 17:52:02;;;;;;;2.15;1.60;;;;;;;;;;4968743;28;20038;-45
2023/01/05 17:54:28;;;;;;;2.33;1.60;;;;;;;;;;4967899;28;20114;-46
2023/01/05 17:56:54;;;;;;;1.25;1.15;;;;;;;;;;4967848;28;20453;-46
2023/01/05 17:59:20;;;;;;;1.45;1.20;;;;;;;;;;4975517;28;20537;-46
2023/01/05 18:01:47;;;;;;;1.67;1.50;;;;;;;;;;4970847;28;20417;-47
2023/01/05 18:04:13;;;;;;;1.90;1.50;;;;;;;;;;4964699;28;20043;-46
2023/01/05 18:06:39;;;;;;;1.35;1.25;;;;;;;;;;4948260;29;20054;-47
2023/01/05 18:09:05;;;;;;;1.98;1.42;;;;;;;;;;4930575;29;20550;-46
2023/01/05 18:11:31;;;;;;;3.67;1.63;;;;;;;;;;4958721;28;20026;-45
2023/01/05 18:13:57;;;;;;;2.08;1.67;;;;;;;;;;4966586;28;20035;-46
2023/01/05 18:16:23;;;;;;;1.65;1.40;;;;;;;;;;4967455;28;20038;-46
2023/01/05 18:18:49;;;;;;;1.90;1.55;;;;;;;;;;4966387;28;20106;-46
2023/01/05 18:21:15;;;;;;;1.95;1.50;;;;;;;;;;4966931;28;20486;-47
2023/01/05 18:23:41;;;;;;;2.35;1.60;;;;;;;;;;4966913;28;20029;-47
2023/01/05 18:26:07;;;;;;;1.40;1.30;;;;;;;;;;4967176;28;20046;-46
2023/01/05 18:28:35;;;;;;;1.45;1.35;;;;;;;;;;4949897;28;20088;-46
2023/01/05 18:31:01;;;;;;;1.60;1.50;;;;;;;;;;4965827;28;20026;-46
2023/01/05 18:33:28;;;;;;;1.73;1.42;;;;;;;;;;4949841;28;20022;-47
2023/01/05 18:35:54;;;;;;;1.40;1.30;;;;;;;;;;4964807;28;20045;-46
2023/01/05 18:38:20;;;;;;;2.05;1.63;;;;;;;;;;4966904;28;20031;-49
2023/01/05 18:40:47;;;;;;;1.48;1.33;;;;;;;;;;4966363;28;20063;-46
2023/01/05 18:43:14;;;;;;;1.63;1.45;;;;;;;;;;4966305;28;20105;-46
2023/01/05 18:45:40;;;;;;;1.75;1.63;;;;;;;;;;4947704;29;20440;-45
2023/01/05 18:48:06;;;;;;;1.35;1.25;;;;;;;;;;4959085;28;20234;-49
2023/01/05 18:50:32;;;;;;;1.40;1.30;;;;;;;;;;4966918;28;20035;-46
2023/01/05 18:52:58;;;;;;;2.03;1.42;;;;;;;;;;4966222;28;20034;-48
2023/01/05 18:55:24;;;;;;;1.88;1.63;;;;;;;;;;4965956;28;20034;-46
2023/01/05 18:57:50;;;;;;;3.28;1.60;;;;;;;;;;4966968;28;20118;-47
2023/01/05 19:00:16;;;;;;;1.92;1.63;;;;;;;;;;4966406;28;20513;-46
2023/01/05 19:02:43;;;;;;;1.95;1.63;;;;;;;;;;4966838;28;20081;-46
2023/01/05 19:05:10;;;;;;;1.70;1.55;;;;;;;;;;4963907;28;20101;-47
2023/01/05 19:07:38;;;;;;;1.77;1.55;;;;;;;;;;4968605;28;20149;-46
2023/01/05 19:10:04;;;;;;;2.33;1.67;;;;;;;;;;4952386;28;20108;-48
2023/01/05 19:12:30;;;;;;;2.13;1.70;;;;;;;;;;4967573;28;20027;-46
2023/01/05 19:14:56;;;;;;;2.40;2.10;;;;;;;;;;4964919;28;20726;-46
2023/01/05 19:17:22;;;;;;;2.67;2.10;;;;;;;;;;4963318;28;20023;-46
2023/01/05 19:19:48;;;;;;;2.65;2.13;;;;;;;;;;4965520;28;20053;-46
2023/01/05 19:22:14;;;;;;;2.45;2.10;;;;;;;;;;4966159;28;20038;-49
2023/01/05 19:24:40;;;;;;;3.15;2.53;;;;;;;;;;4967863;28;20031;-46
2023/01/05 19:27:07;;;;;;;5.18;3.60;;;;;;;;;;4967761;28;20154;-45
2023/01/05 19:29:34;;;;;;;6.22;4.10;;;;;;;;;;4965741;28;20849;-46
2023/01/05 19:32:00;;;;;;;5.13;3.90;;;;;;;;;;4964110;28;20019;-48
2023/01/05 19:34:26;;;;;;;5.47;3.92;;;;;;;;;;4968030;28;20450;-47
2023/01/05 19:36:52;;;;;;;5.60;4.35;;;;;;;;;;4966590;28;20089;-45
2023/01/05 19:39:19;;;;;;;6.05;4.45;;;;;;;;;;4965297;28;20035;-46
2023/01/05 19:41:46;;;;;;;6.05;5.25;;;;;;;;;;4965931;28;20031;-46
2023/01/05 19:44:13;;;;;;;6.47;5.25;;;;;;;;;;4949001;28;20062;-46
2023/01/05 19:46:39;;;;;;;10.13;5.82;;;;;;;;;;4949266;28;20089;-48
2023/01/05 19:49:05;;;;;;;5.63;5.03;;;;;;;;;;4953145;28;20118;-46
2023/01/05 19:51:31;;;;;;;5.93;5.07;;;;;;;;;;4966310;28;20144;-48
2023/01/05 19:54:04;;;;;;;4.43;4.00;;;;;;;;;;4966519;28;20031;-47
2023/01/05 19:56:31;;;;;;;5.00;3.95;;;;;;;;;;4970334;28;20038;-48
2023/01/05 19:58:59;;;;;;;6.75;4.93;;;;;;;;;;4968472;28;20030;-48
2023/01/05 20:01:26;;;;;;;6.78;4.50;;;;;;;;;;4969773;28;20042;-45
2023/01/05 20:03:53;;;;;;;5.57;3.83;;;;;;;;;;4969456;28;20019;-45
2023/01/05 20:06:21;;;;;;;5.72;4.10;;;;;;;;;;4969600;28;20031;-45
2023/01/05 20:08:51;;;;;;;4.35;2.97;;;;;;;;;;4964742;28;20037;-46
2023/01/05 20:11:18;;;;;;;4.60;3.10;;;;;;;;;;4968942;28;20348;-45
2023/01/05 20:13:50;;;;;;;5.00;3.45;;;;;;;;;;4967726;28;20054;-47
2023/01/05 20:16:16;;;;;;;6.05;3.63;;;;;;;;;;4969331;28;20118;-47
2023/01/05 20:18:42;;;;;;;5.72;3.45;;;;;;;;;;4968404;28;20475;-46